Time;durP1;ratioP1;P1;durP2;ratioP2;P2;SDS_P1;SDS_P2;PMS_P1;PMS_P2;Temp;Humidity;BMP_temperature;BMP_pressure;BME280_temperature;BME280_humidity;BME280_pressure;Samples;Min_cycle;Max_cycle;Signal;HPM_P1;HPM_P2
2023/03/31 00:00:20;;;;;;;24.02;3.90;;;10.10;99.90;;;;;;5099763;27;20039;-68
2023/03/31 00:02:45;;;;;;;24.63;3.33;;;10.10;99.90;;;;;;5105347;27;20039;-69
2023/03/31 00:05:16;;;;;;;24.25;4.13;;;10.00;99.90;;;;;;5105033;27;20035;-69
2023/03/31 00:07:44;;;;;;;21.13;3.25;;;10.00;99.90;;;;;;5083508;27;20035;-69
2023/03/31 00:10:10;;;;;;;24.63;4.25;;;10.00;99.90;;;;;;5099086;27;20046;-68
2023/03/31 00:12:36;;;;;;;28.88;3.70;;;9.90;99.90;;;;;;5104668;27;20613;-67
2023/03/31 00:15:01;;;;;;;23.20;4.07;;;9.80;99.90;;;;;;5102053;27;20375;-69
2023/03/31 00:17:27;;;;;;;23.77;3.83;;;9.80;99.90;;;;;;5090654;27;20437;-68
2023/03/31 00:19:52;;;;;;;17.73;3.75;;;9.70;99.90;;;;;;5106355;27;20050;-69
2023/03/31 00:22:20;;;;;;;21.35;3.50;;;9.70;99.90;;;;;;5085274;27;20478;-69
2023/03/31 00:24:47;;;;;;;27.63;3.97;;;9.60;99.90;;;;;;5099566;27;20424;-68
2023/03/31 00:27:12;;;;;;;23.15;3.70;;;9.60;99.90;;;;;;5106323;27;20065;-69
2023/03/31 00:29:40;;;;;;;22.98;3.42;;;9.50;99.90;;;;;;5082829;27;20035;-69
2023/03/31 00:32:07;;;;;;;24.80;3.60;;;9.50;99.90;;;;;;5102193;27;20074;-70
2023/03/31 00:34:33;;;;;;;20.90;4.28;;;9.40;99.90;;;;;;5103456;27;20090;-69
2023/03/31 00:37:01;;;;;;;24.92;3.88;;;9.30;99.90;;;;;;5105633;27;20035;-69
2023/03/31 00:39:30;;;;;;;27.92;4.07;;;9.30;99.90;;;;;;5117622;27;20041;-69
2023/03/31 00:41:57;;;;;;;19.42;3.50;;;9.30;99.90;;;;;;5104954;27;20088;-68
2023/03/31 00:44:28;;;;;;;26.10;3.85;;;9.20;99.90;;;;;;5101590;27;20039;-69
2023/03/31 00:47:16;;;;;;;20.83;3.47;;;9.20;99.90;;;;;;5104862;27;20097;-68
2023/03/31 00:49:50;;;;;;;21.00;3.67;;;9.20;99.90;;;;;;5101317;27;20043;-69
2023/03/31 00:52:23;;;;;;;26.30;3.58;;;9.20;99.90;;;;;;5105700;27;20130;-69
2023/03/31 00:54:54;;;;;;;28.02;3.55;;;9.10;99.90;;;;;;5089448;27;20181;-69
2023/03/31 00:57:21;;;;;;;23.80;4.20;;;9.10;99.90;;;;;;5102760;27;20118;-69
2023/03/31 00:59:51;;;;;;;21.50;3.33;;;9.10;99.90;;;;;;5103484;27;20066;-68
2023/03/31 01:02:19;;;;;;;27.15;3.78;;;9.10;99.90;;;;;;5102052;27;20114;-69
2023/03/31 01:04:49;;;;;;;20.92;3.80;;;9.10;99.90;;;;;;5100786;27;20474;-69
2023/03/31 01:07:25;;;;;;;23.52;4.20;;;9.00;99.90;;;;;;5101611;27;20031;-69
2023/03/31 01:09:55;;;;;;;27.25;4.00;;;9.10;99.90;;;;;;5100253;27;20684;-70
2023/03/31 01:12:22;;;;;;;27.92;3.78;;;9.10;99.90;;;;;;5100699;27;20093;-69
2023/03/31 01:14:49;;;;;;;24.83;3.83;;;9.10;99.90;;;;;;5104114;27;20166;-69
2023/03/31 01:17:18;;;;;;;24.65;3.85;;;9.10;99.90;;;;;;5100711;27;20034;-69
2023/03/31 01:19:54;;;;;;;23.98;3.78;;;9.10;99.90;;;;;;5099104;27;20285;-69
2023/03/31 01:22:58;;;;;;;21.55;3.65;;;9.10;99.90;;;;;;5106553;27;20062;-69
2023/03/31 01:25:50;;;;;;;27.85;3.40;;;9.10;99.90;;;;;;5097981;27;20486;-69
2023/03/31 01:28:38;;;;;;;26.08;3.65;;;9.00;99.90;;;;;;5102016;27;20065;-70
2023/03/31 01:31:36;;;;;;;25.92;3.65;;;9.00;99.90;;;;;;5098999;27;20031;-70
2023/03/31 01:34:11;;;;;;;23.85;3.90;;;9.10;99.90;;;;;;5102522;27;20035;-69
2023/03/31 01:36:54;;;;;;;22.27;3.90;;;9.10;99.90;;;;;;5100014;27;20027;-69
2023/03/31 01:39:58;;;;;;;21.95;3.58;;;9.10;99.90;;;;;;5104652;27;20039;-69
2023/03/31 01:42:51;;;;;;;20.55;4.10;;;9.10;99.90;;;;;;5105499;27;20415;-70
2023/03/31 01:45:27;;;;;;;19.45;3.85;;;9.10;99.90;;;;;;5096995;27;20119;-69
2023/03/31 01:48:01;;;;;;;13.57;3.70;;;9.10;99.90;;;;;;5101929;27;20038;-70
2023/03/31 01:50:45;;;;;;;16.90;4.40;;;9.20;99.90;;;;;;5098580;27;20066;-70
2023/03/31 01:53:25;;;;;;;19.40;3.90;;;9.20;99.90;;;;;;5105794;27;20538;-69
2023/03/31 01:56:09;;;;;;;25.05;4.22;;;9.20;99.90;;;;;;5101777;27;20580;-69
2023/03/31 01:58:39;;;;;;;22.70;4.55;;;9.20;99.90;;;;;;5099301;27;20039;-70
2023/03/31 02:01:36;;;;;;;17.77;4.28;;;9.20;99.90;;;;;;5103391;27;20047;-70
2023/03/31 02:04:11;;;;;;;22.08;3.83;;;9.30;99.90;;;;;;5073319;27;20481;-69
2023/03/31 02:06:45;;;;;;;17.77;3.67;;;9.20;99.90;;;;;;5101768;27;20098;-70
2023/03/31 02:09:21;;;;;;;24.80;4.32;;;9.30;99.90;;;;;;5102954;28;20485;-70
2023/03/31 02:11:48;;;;;;;20.33;4.47;;;9.30;99.90;;;;;;5095706;27;20034;-70
2023/03/31 02:14:20;;;;;;;14.82;4.03;;;9.30;99.90;;;;;;5121518;27;20083;-70
2023/03/31 02:16:50;;;;;;;17.63;4.05;;;9.40;99.90;;;;;;5097396;28;20899;-70
2023/03/31 02:19:19;;;;;;;15.70;3.72;;;9.30;99.90;;;;;;5096231;28;20070;-70
2023/03/31 02:21:50;;;;;;;16.38;4.15;;;9.30;99.90;;;;;;5096884;28;20130;-70
2023/03/31 02:24:18;;;;;;;18.83;3.97;;;9.40;99.90;;;;;;5103340;28;20062;-70
2023/03/31 02:27:02;;;;;;;15.27;3.67;;;9.50;99.90;;;;;;5097705;27;20418;-70
2023/03/31 02:29:28;;;;;;;19.67;3.95;;;9.40;99.90;;;;;;5104004;27;20134;-70
2023/03/31 02:32:12;;;;;;;20.30;4.13;;;9.50;99.90;;;;;;5105988;27;20366;-70
2023/03/31 02:34:38;;;;;;;14.25;3.72;;;9.50;99.90;;;;;;5126468;27;21300;-71
2023/03/31 02:37:05;;;;;;;17.05;3.97;;;9.50;99.90;;;;;;5103413;27;20035;-70
2023/03/31 02:39:34;;;;;;;13.30;3.95;;;9.50;99.90;;;;;;5108280;27;20401;-70
2023/03/31 02:42:06;;;;;;;16.10;3.67;;;9.50;99.90;;;;;;5107832;27;20043;-70
2023/03/31 02:44:38;;;;;;;18.17;3.57;;;9.60;99.90;;;;;;5105182;27;20058;-70
2023/03/31 02:47:08;;;;;;;14.20;4.05;;;9.60;99.90;;;;;;5105941;27;20300;-70
2023/03/31 02:49:36;;;;;;;16.88;3.70;;;9.60;99.90;;;;;;5101092;27;20051;-70
2023/03/31 02:52:25;;;;;;;16.77;4.25;;;9.60;99.90;;;;;;5084431;27;20039;-69
2023/03/31 02:55:09;;;;;;;14.18;3.80;;;9.60;99.90;;;;;;5106950;27;20088;-70
2023/03/31 02:58:01;;;;;;;15.48;4.47;;;9.70;99.90;;;;;;5104077;27;20058;-70
2023/03/31 03:00:54;;;;;;;16.05;4.50;;;9.70;99.90;;;;;;5106069;27;20433;-70
2023/03/31 03:03:42;;;;;;;13.05;4.07;;;9.70;99.90;;;;;;5106425;27;21087;-70
2023/03/31 03:06:52;;;;;;;15.13;4.25;;;9.70;99.90;;;;;;5101524;27;20035;-70
2023/03/31 03:09:28;;;;;;;17.90;5.07;;;9.70;99.90;;;;;;5102327;27;20093;-70
2023/03/31 03:12:18;;;;;;;12.68;4.65;;;9.80;99.90;;;;;;5104157;27;20089;-69
2023/03/31 03:15:10;;;;;;;19.83;5.10;;;9.80;99.90;;;;;;5100959;27;20055;-70
2023/03/31 03:17:47;;;;;;;16.48;5.00;;;9.80;99.90;;;;;;5108975;27;20039;-67
2023/03/31 03:20:15;;;;;;;18.95;5.38;;;9.80;99.90;;;;;;5111080;27;21729;-66
2023/03/31 03:22:40;;;;;;;20.73;5.47;;;9.80;99.90;;;;;;5110030;27;20035;-65
2023/03/31 03:25:09;;;;;;;17.55;5.70;;;9.80;99.90;;;;;;5114891;27;20035;-66
2023/03/31 03:27:35;;;;;;;15.52;5.43;;;9.80;99.90;;;;;;5113128;27;20144;-65
2023/03/31 03:30:02;;;;;;;20.10;5.90;;;9.80;99.90;;;;;;5112533;27;20051;-64
2023/03/31 03:32:28;;;;;;;15.30;5.60;;;9.80;99.90;;;;;;5113864;27;20039;-64
2023/03/31 03:34:53;;;;;;;18.45;5.18;;;9.80;99.90;;;;;;5113547;27;20096;-65
2023/03/31 03:37:19;;;;;;;16.58;5.40;;;9.80;99.90;;;;;;5112615;27;20536;-64
2023/03/31 03:39:45;;;;;;;16.98;6.00;;;9.80;99.90;;;;;;5112231;27;20080;-64
2023/03/31 03:42:10;;;;;;;15.13;5.55;;;9.80;99.90;;;;;;5125368;27;20035;-64
2023/03/31 03:48:43;;;;;;;16.77;5.60;;;9.80;99.90;;;;;;5128543;27;20411;-65
2023/03/31 03:51:09;;;;;;;18.02;5.55;;;9.80;99.90;;;;;;5109264;27;20500;-65
2023/03/31 03:53:35;;;;;;;16.23;5.50;;;9.80;99.90;;;;;;5107229;27;20040;-64
2023/03/31 03:56:01;;;;;;;15.02;5.38;;;9.80;99.90;;;;;;5111250;27;20078;-64
2023/03/31 03:58:27;;;;;;;13.80;5.00;;;9.80;99.90;;;;;;5110369;27;20082;-64
2023/03/31 04:04:34;;;;;;;15.32;5.07;;;9.80;99.90;;;;;;5129198;27;20041;-65
2023/03/31 04:06:59;;;;;;;20.70;5.53;;;9.80;99.90;;;;;;5111762;27;20279;-65
2023/03/31 04:09:25;;;;;;;15.13;5.00;;;9.80;99.90;;;;;;5109891;27;20077;-64
2023/03/31 04:11:50;;;;;;;14.35;4.88;;;9.80;99.90;;;;;;5108587;27;20104;-65
2023/03/31 04:14:16;;;;;;;12.38;4.88;;;9.80;99.90;;;;;;5109125;27;20564;-64
2023/03/31 04:16:41;;;;;;;14.45;5.07;;;9.80;99.90;;;;;;5110954;27;20035;-65
2023/03/31 04:19:10;;;;;;;13.63;5.18;;;9.80;99.90;;;;;;5105960;27;20031;-65
2023/03/31 04:21:35;;;;;;;13.18;4.80;;;9.80;99.90;;;;;;5112065;27;20039;-65
2023/03/31 04:24:03;;;;;;;12.38;4.53;;;9.80;99.90;;;;;;5118492;27;20047;-65
2023/03/31 04:26:41;;;;;;;12.05;4.78;;;9.70;99.90;;;;;;5109262;27;20493;-65
2023/03/31 04:29:12;;;;;;;16.67;5.00;;;9.80;99.90;;;;;;5112022;27;20035;-65
2023/03/31 04:31:41;;;;;;;15.00;5.32;;;9.70;99.90;;;;;;5110618;27;20066;-65
2023/03/31 04:34:12;;;;;;;12.65;4.60;;;9.80;99.90;;;;;;5107285;28;20122;-66
2023/03/31 04:36:41;;;;;;;13.18;4.53;;;9.70;99.90;;;;;;5109203;27;20035;-65
2023/03/31 04:39:09;;;;;;;11.73;4.60;;;9.70;99.90;;;;;;5110803;27;20390;-65
2023/03/31 04:45:16;;;;;;;12.05;4.40;;;9.70;99.90;;;;;;5127506;27;20091;-66
2023/03/31 04:47:42;;;;;;;14.77;4.45;;;9.70;99.90;;;;;;5102947;27;20489;-65
2023/03/31 04:53:48;;;;;;;12.18;4.63;;;9.70;99.90;;;;;;5125704;27;20162;-65
2023/03/31 04:56:14;;;;;;;11.93;4.20;;;9.70;99.90;;;;;;5110085;27;20122;-65
2023/03/31 04:58:39;;;;;;;12.32;4.63;;;9.70;99.90;;;;;;5109465;27;20122;-65
2023/03/31 05:01:19;;;;;;;15.88;5.13;;;9.70;99.90;;;;;;5114046;27;20070;-64
2023/03/31 05:03:48;;;;;;;17.75;5.28;;;9.70;99.90;;;;;;5112246;27;20080;-65
2023/03/31 05:06:15;;;;;;;17.75;4.55;;;9.70;99.90;;;;;;5118834;27;20038;-65
2023/03/31 05:08:51;;;;;;;15.38;4.57;;;9.70;99.90;;;;;;5114354;27;20043;-65
2023/03/31 05:11:17;;;;;;;14.35;4.80;;;9.70;99.90;;;;;;5113071;27;20042;-65
2023/03/31 05:13:45;;;;;;;12.88;4.78;;;9.70;99.90;;;;;;5103345;27;20035;-65
2023/03/31 05:16:13;;;;;;;14.30;4.65;;;9.70;99.90;;;;;;5115871;27;20083;-65
2023/03/31 05:22:19;;;;;;;13.20;4.60;;;9.70;99.90;;;;;;5123416;27;20513;-66
2023/03/31 05:24:46;;;;;;;13.88;4.63;;;9.70;99.90;;;;;;5110524;27;20589;-66
2023/03/31 05:27:20;;;;;;;10.82;4.45;;;9.70;99.90;;;;;;5110800;27;20505;-67
2023/03/31 05:30:38;;;;;;;13.02;4.38;;;9.80;99.90;;;;;;5115254;27;20434;-66
2023/03/31 05:33:03;;;;;;;14.32;4.82;;;9.80;99.90;;;;;;5115876;27;20401;-66
2023/03/31 05:35:29;;;;;;;13.25;4.55;;;9.80;99.90;;;;;;5116737;27;20039;-67
2023/03/31 05:38:07;;;;;;;10.57;4.43;;;9.70;99.90;;;;;;5116452;27;20027;-67
2023/03/31 05:40:32;;;;;;;18.23;5.35;;;9.80;99.90;;;;;;5117104;27;20077;-68
2023/03/31 05:42:58;;;;;;;9.48;4.60;;;9.80;99.90;;;;;;5116575;27;20393;-67
2023/03/31 05:45:23;;;;;;;13.63;4.38;;;9.80;99.90;;;;;;5116213;27;20043;-66
2023/03/31 05:47:55;;;;;;;15.23;4.80;;;9.70;99.90;;;;;;5115223;27;20043;-67
2023/03/31 05:50:43;;;;;;;15.15;5.28;;;9.70;99.90;;;;;;5133185;27;20042;-67
2023/03/31 05:53:08;;;;;;;12.55;4.35;;;9.80;99.90;;;;;;5133308;27;20402;-67
2023/03/31 05:55:37;;;;;;;14.25;4.85;;;9.70;99.90;;;;;;5117396;27;20039;-68
2023/03/31 06:01:28;;;;;;;10.90;4.07;;;9.80;99.90;;;;;;5115357;27;20035;-68
2023/03/31 06:03:59;;;;;;;12.38;4.25;;;9.80;99.90;;;;;;5112547;27;20043;-68
2023/03/31 06:06:25;;;;;;;9.55;4.70;;;9.80;99.90;;;;;;5101120;27;20043;-68
2023/03/31 06:08:51;;;;;;;13.70;4.95;;;9.70;99.90;;;;;;5101187;28;20378;-69
2023/03/31 06:11:19;;;;;;;12.10;5.03;;;9.70;99.90;;;;;;5107777;27;20482;-68
2023/03/31 06:13:46;;;;;;;14.85;4.88;;;9.70;99.90;;;;;;5106887;28;20035;-68
2023/03/31 06:16:13;;;;;;;11.52;4.85;;;9.70;99.90;;;;;;5107845;28;20089;-69
2023/03/31 06:18:40;;;;;;;18.45;5.78;;;9.80;99.90;;;;;;5112123;28;20074;-69
2023/03/31 06:21:12;;;;;;;13.90;5.70;;;9.80;99.90;;;;;;5115832;27;20039;-69
2023/03/31 06:23:43;;;;;;;15.10;5.25;;;9.70;99.90;;;;;;5115040;27;20051;-69
2023/03/31 06:26:13;;;;;;;12.32;4.70;;;9.90;99.90;;;;;;5115152;28;20042;-70
2023/03/31 06:28:39;;;;;;;20.52;5.65;;;9.80;99.90;;;;;;5105204;28;20444;-69
2023/03/31 06:31:07;;;;;;;11.85;4.93;;;9.90;99.90;;;;;;5116101;28;20046;-69
2023/03/31 06:33:33;;;;;;;13.88;4.97;;;9.90;99.90;;;;;;5112194;28;20039;-69
2023/03/31 06:36:05;;;;;;;16.65;5.20;;;9.80;99.90;;;;;;5117692;28;20027;-69
2023/03/31 06:38:40;;;;;;;18.25;4.43;;;9.90;99.90;;;;;;5114345;28;20035;-69
2023/03/31 06:41:08;;;;;;;16.05;4.57;;;9.80;99.90;;;;;;5115126;28;20546;-69
2023/03/31 06:43:34;;;;;;;15.32;4.43;;;9.80;99.90;;;;;;5115110;28;20058;-68
2023/03/31 06:46:00;;;;;;;12.60;4.10;;;9.90;99.90;;;;;;5115150;28;20557;-68
2023/03/31 06:48:26;;;;;;;10.20;3.85;;;9.90;99.90;;;;;;5115283;28;20121;-68
2023/03/31 06:50:58;;;;;;;12.35;3.80;;;9.90;99.90;;;;;;5114612;28;20046;-69
2023/03/31 06:54:06;;;;;;;11.30;3.90;;;9.90;99.90;;;;;;5106371;28;20438;-68
2023/03/31 06:56:39;;;;;;;8.13;3.45;;;9.90;99.90;;;;;;5114992;28;20397;-67
2023/03/31 06:59:27;;;;;;;13.50;4.18;;;10.00;99.90;;;;;;5096591;28;20039;-67
2023/03/31 07:01:53;;;;;;;12.15;4.28;;;9.90;99.90;;;;;;5131701;27;20168;-68
2023/03/31 07:04:19;;;;;;;11.55;3.95;;;10.10;99.90;;;;;;5107145;28;20043;-68
2023/03/31 07:06:44;;;;;;;10.57;3.55;;;10.00;99.90;;;;;;5107253;28;20394;-68
2023/03/31 07:09:10;;;;;;;12.48;4.03;;;10.10;99.90;;;;;;5118407;28;20054;-67
2023/03/31 07:11:39;;;;;;;11.77;3.83;;;10.10;99.90;;;;;;5113468;28;20046;-69
2023/03/31 07:14:05;;;;;;;12.52;3.83;;;10.20;99.90;;;;;;5115399;27;20424;-67
2023/03/31 07:16:30;;;;;;;13.27;4.18;;;10.20;99.90;;;;;;5132326;27;20039;-69
2023/03/31 07:19:03;;;;;;;12.40;4.40;;;10.10;99.90;;;;;;5110134;27;20035;-69
2023/03/31 07:21:28;;;;;;;10.85;3.30;;;10.20;99.90;;;;;;5118971;27;20047;-68
2023/03/31 07:23:54;;;;;;;14.27;4.20;;;10.30;99.90;;;;;;5108641;27;20039;-66
2023/03/31 07:26:20;;;;;;;11.75;3.92;;;10.40;99.90;;;;;;5125352;27;20096;-68
2023/03/31 07:28:45;;;;;;;15.80;4.03;;;10.30;99.90;;;;;;5110869;28;20039;-68
2023/03/31 07:31:12;;;;;;;13.77;3.85;;;10.40;99.90;;;;;;5098941;28;20528;-69
2023/03/31 07:33:38;;;;;;;12.68;3.90;;;10.40;99.90;;;;;;5105174;27;20035;-66
2023/03/31 07:36:08;;;;;;;14.25;3.83;;;10.50;99.90;;;;;;5118481;27;20084;-67
2023/03/31 07:38:50;;;;;;;13.98;3.88;;;10.60;99.90;;;;;;5104571;28;20031;-68
2023/03/31 07:41:18;;;;;;;13.00;4.23;;;10.70;99.90;;;;;;5115165;27;20035;-68
2023/03/31 07:44:36;;;;;;;15.13;4.20;;;10.70;99.90;;;;;;5118015;27;20035;-68
2023/03/31 07:47:03;;;;;;;13.18;3.85;;;10.80;99.90;;;;;;5118456;27;20043;-67
2023/03/31 07:49:35;;;;;;;13.18;4.20;;;10.80;99.90;;;;;;5118861;27;20062;-67
2023/03/31 07:52:04;;;;;;;15.32;4.53;;;10.80;99.90;;;;;;5117343;27;20099;-68
2023/03/31 07:54:59;;;;;;;15.73;4.07;;;10.90;99.90;;;;;;5118239;27;20046;-68
2023/03/31 07:57:31;;;;;;;14.70;4.07;;;10.90;99.90;;;;;;5110915;27;20055;-67
2023/03/31 08:00:31;;;;;;;12.75;3.90;;;11.00;99.90;;;;;;5108892;28;20071;-66
2023/03/31 08:02:56;;;;;;;17.38;4.35;;;11.00;99.90;;;;;;5116108;27;20034;-67
2023/03/31 08:05:22;;;;;;;15.73;4.22;;;11.10;99.90;;;;;;5100575;28;20470;-67
2023/03/31 08:07:48;;;;;;;14.07;3.72;;;11.10;99.90;;;;;;5114844;28;20494;-67
2023/03/31 08:10:19;;;;;;;14.65;4.18;;;11.10;99.90;;;;;;5098906;27;20051;-68
2023/03/31 08:13:23;;;;;;;12.48;3.80;;;11.10;99.90;;;;;;5118322;27;20043;-67
2023/03/31 08:15:56;;;;;;;13.98;3.70;;;11.20;99.90;;;;;;5108959;27;20126;-67
2023/03/31 08:18:23;;;;;;;13.68;3.38;;;11.20;99.90;;;;;;5093720;27;20040;-66
2023/03/31 08:20:48;;;;;;;11.27;3.60;;;11.30;99.90;;;;;;5115104;27;20039;-67
2023/03/31 08:23:14;;;;;;;13.00;3.50;;;11.20;99.90;;;;;;5102829;27;20040;-66
2023/03/31 08:25:40;;;;;;;15.95;4.10;;;11.30;99.90;;;;;;5099586;28;20087;-67
2023/03/31 08:28:12;;;;;;;14.30;3.67;;;11.30;99.90;;;;;;5104302;27;20042;-67
2023/03/31 08:30:48;;;;;;;13.68;3.40;;;11.30;99.90;;;;;;5114452;27;20081;-66
2023/03/31 08:33:14;;;;;;;12.27;3.55;;;11.30;99.90;;;;;;5110723;27;20080;-69
2023/03/31 08:35:39;;;;;;;9.77;3.85;;;11.30;99.90;;;;;;5116269;27;20027;-66
2023/03/31 08:38:05;;;;;;;14.50;4.10;;;11.40;99.90;;;;;;5116719;27;20066;-67
2023/03/31 08:40:33;;;;;;;13.38;3.50;;;11.40;99.90;;;;;;5103256;28;20535;-67
2023/03/31 08:43:05;;;;;;;13.18;3.28;;;11.40;99.90;;;;;;5110362;27;20034;-67
2023/03/31 08:45:49;;;;;;;11.38;3.65;;;11.40;99.90;;;;;;5111753;27;20064;-66
2023/03/31 08:48:43;;;;;;;13.35;3.45;;;11.50;99.90;;;;;;5110652;27;20034;-66
2023/03/31 08:54:45;;;;;;;10.88;3.10;;;11.70;99.90;;;;;;5104654;27;20494;-66
2023/03/31 08:57:51;;;;;;;12.20;2.97;;;11.80;99.90;;;;;;5107839;27;20051;-66
2023/03/31 09:00:18;;;;;;;5.88;2.35;;;11.80;99.90;;;;;;5103715;27;20043;-67
2023/03/31 09:02:51;;;;;;;5.93;2.20;;;11.70;99.90;;;;;;5108595;27;20091;-67
2023/03/31 09:05:45;;;;;;;4.63;2.22;;;11.70;99.90;;;;;;5101255;27;20047;-67
2023/03/31 09:08:21;;;;;;;7.07;2.25;;;11.60;99.90;;;;;;5105847;27;20176;-67
2023/03/31 09:11:08;;;;;;;7.07;2.38;;;11.60;99.90;;;;;;5111905;27;20502;-67
2023/03/31 09:13:52;;;;;;;7.47;2.80;;;11.70;99.90;;;;;;5106971;27;20043;-69
2023/03/31 09:16:29;;;;;;;12.35;2.70;;;11.70;99.90;;;;;;5108393;27;20458;-69
2023/03/31 09:19:01;;;;;;;8.32;2.53;;;11.70;99.90;;;;;;5107944;27;20065;-68
2023/03/31 09:21:50;;;;;;;9.93;2.60;;;11.80;99.90;;;;;;5109491;27;20082;-69
2023/03/31 09:24:22;;;;;;;7.30;2.05;;;11.80;99.90;;;;;;5107298;27;20035;-69
2023/03/31 09:27:05;;;;;;;8.13;2.83;;;11.80;99.90;;;;;;5106193;27;20085;-69
2023/03/31 09:29:41;;;;;;;9.00;2.58;;;11.80;99.90;;;;;;5105389;27;20047;-69
2023/03/31 09:32:19;;;;;;;10.25;2.67;;;11.90;99.90;;;;;;5111299;27;20103;-69
2023/03/31 09:35:37;;;;;;;8.60;2.67;;;12.10;99.90;;;;;;5104856;27;20437;-69
2023/03/31 09:38:03;;;;;;;11.23;2.92;;;12.10;99.90;;;;;;5070087;27;20108;-70
2023/03/31 09:40:29;;;;;;;6.13;2.30;;;12.10;99.90;;;;;;5106486;27;20536;-70
2023/03/31 09:43:01;;;;;;;7.05;2.50;;;12.10;99.90;;;;;;5108690;27;20031;-69
2023/03/31 09:45:35;;;;;;;6.22;2.38;;;12.20;99.90;;;;;;5103698;27;20050;-71
2023/03/31 09:48:05;;;;;;;6.90;2.40;;;12.30;99.90;;;;;;5106342;27;20068;-69
2023/03/31 09:51:04;;;;;;;7.30;2.03;;;12.30;99.90;;;;;;5115585;27;20126;-68
2023/03/31 09:54:13;;;;;;;7.90;2.53;;;12.50;99.90;;;;;;5110256;27;20127;-70
2023/03/31 09:56:42;;;;;;;7.47;2.10;;;12.50;99.90;;;;;;5109055;27;20062;-67
2023/03/31 09:59:15;;;;;;;8.77;2.03;;;12.60;99.90;;;;;;5114007;27;20493;-69
2023/03/31 10:01:41;;;;;;;5.90;1.90;;;12.80;99.90;;;;;;5101299;28;20120;-67
2023/03/31 10:04:08;;;;;;;6.10;2.15;;;12.80;99.90;;;;;;5101281;28;20083;-69
2023/03/31 10:06:41;;;;;;;5.47;1.98;;;12.90;99.90;;;;;;5110659;27;20042;-68
2023/03/31 10:09:09;;;;;;;5.68;1.80;;;13.00;99.90;;;;;;5115848;28;20038;-68
2023/03/31 10:12:00;;;;;;;6.27;2.03;;;13.20;99.90;;;;;;5113905;28;20497;-68
2023/03/31 10:14:46;;;;;;;5.03;2.00;;;13.30;99.90;;;;;;5115781;28;20035;-68
2023/03/31 10:17:17;;;;;;;6.07;2.25;;;13.40;99.90;;;;;;5109685;27;20050;-68
2023/03/31 10:19:53;;;;;;;7.63;2.35;;;13.50;99.90;;;;;;5115108;28;20474;-68
2023/03/31 10:22:31;;;;;;;7.15;2.10;;;13.60;99.90;;;;;;5092021;27;20520;-67
2023/03/31 10:25:22;;;;;;;6.55;2.50;;;13.70;99.90;;;;;;5108583;27;20039;-67
2023/03/31 10:27:51;;;;;;;7.30;2.70;;;13.50;99.90;;;;;;5101369;28;20079;-67
2023/03/31 10:30:21;;;;;;;8.00;2.10;;;13.40;99.90;;;;;;5100103;28;20134;-68
2023/03/31 10:32:46;;;;;;;4.82;2.22;;;13.30;99.90;;;;;;5107059;28;20038;-68
2023/03/31 10:35:18;;;;;;;9.45;2.20;;;13.10;99.90;;;;;;5113104;28;20092;-68
2023/03/31 10:37:43;;;;;;;6.60;2.08;;;13.00;99.90;;;;;;5111936;28;20118;-69
2023/03/31 10:40:16;;;;;;;6.70;2.35;;;12.90;99.90;;;;;;5107307;28;20467;-69
2023/03/31 10:42:48;;;;;;;8.57;2.20;;;12.80;99.90;;;;;;5112555;28;20084;-69
2023/03/31 10:49:24;;;;;;;7.82;2.40;;;12.80;99.90;;;;;;5126020;27;20488;-68
2023/03/31 10:51:57;;;;;;;6.72;2.05;;;12.90;99.90;;;;;;5119572;27;20054;-68
2023/03/31 10:54:58;;;;;;;7.55;2.35;;;13.00;99.90;;;;;;5119558;27;20084;-69
2023/03/31 10:57:31;;;;;;;6.35;2.42;;;13.10;99.90;;;;;;5118234;27;20039;-69
2023/03/31 11:00:26;;;;;;;8.02;2.58;;;13.00;99.90;;;;;;5111056;27;20043;-68
2023/03/31 11:03:03;;;;;;;6.95;2.42;;;13.00;99.90;;;;;;5099608;27;20523;-68
2023/03/31 11:05:38;;;;;;;7.78;2.50;;;13.00;99.90;;;;;;5115056;27;20039;-69
2023/03/31 11:08:25;;;;;;;8.07;2.80;;;13.20;99.90;;;;;;5111217;28;20067;-69
2023/03/31 11:11:04;;;;;;;9.70;3.10;;;13.30;99.90;;;;;;5107603;27;20077;-68
2023/03/31 11:13:57;;;;;;;6.10;2.60;;;13.30;99.90;;;;;;5104347;28;20044;-69
2023/03/31 11:16:57;;;;;;;8.05;2.83;;;13.40;99.90;;;;;;5099739;27;20035;-68
2023/03/31 11:20:00;;;;;;;7.50;2.63;;;13.30;99.90;;;;;;5105633;27;20039;-69
2023/03/31 11:23:02;;;;;;;9.05;2.92;;;13.40;99.90;;;;;;5126725;27;20035;-69
2023/03/31 11:25:42;;;;;;;12.60;3.40;;;13.40;99.90;;;;;;5111385;28;20077;-69
2023/03/31 11:28:20;;;;;;;9.13;2.78;;;13.30;99.90;;;;;;5106002;27;20512;-70
2023/03/31 11:31:05;;;;;;;7.55;3.00;;;13.30;99.90;;;;;;5104278;27;20054;-68
2023/03/31 11:33:57;;;;;;;7.55;3.35;;;13.30;99.90;;;;;;5114664;27;20046;-69
2023/03/31 11:36:48;;;;;;;7.55;3.20;;;13.30;99.90;;;;;;5114992;27;20039;-67
2023/03/31 11:39:40;;;;;;;9.40;3.38;;;13.40;99.90;;;;;;5114189;27;20031;-68
2023/03/31 11:42:20;;;;;;;10.33;3.70;;;13.50;99.90;;;;;;5104793;27;20035;-68
2023/03/31 11:44:55;;;;;;;15.48;4.13;;;13.70;99.90;;;;;;5106261;27;20043;-67
2023/03/31 11:47:32;;;;;;;10.52;3.65;;;13.90;99.90;;;;;;5106754;27;20074;-68
2023/03/31 11:50:11;;;;;;;11.85;3.65;;;13.90;99.90;;;;;;5115574;27;20031;-68
2023/03/31 11:52:42;;;;;;;12.70;3.97;;;13.90;99.90;;;;;;5116838;27;20050;-68
2023/03/31 11:55:20;;;;;;;11.45;3.60;;;13.80;99.90;;;;;;5117089;27;20047;-68
2023/03/31 11:57:55;;;;;;;13.40;4.00;;;13.80;99.90;;;;;;5118353;27;20084;-67
2023/03/31 12:00:36;;;;;;;12.93;3.63;;;13.80;99.90;;;;;;5114315;27;20030;-68
2023/03/31 12:03:28;;;;;;;13.05;3.55;;;13.90;99.90;;;;;;5118029;27;20050;-68
2023/03/31 12:06:01;;;;;;;12.95;4.10;;;13.90;99.90;;;;;;5106409;28;20118;-69
2023/03/31 12:08:35;;;;;;;16.00;3.90;;;14.00;99.90;;;;;;5110529;27;20035;-68
2023/03/31 12:11:21;;;;;;;12.90;3.75;;;14.10;99.90;;;;;;5115836;27;20058;-69
2023/03/31 12:13:51;;;;;;;14.70;3.97;;;14.20;99.90;;;;;;5106353;27;20043;-69
2023/03/31 12:16:40;;;;;;;14.40;3.85;;;14.10;99.90;;;;;;5103373;27;20466;-67
2023/03/31 12:19:13;;;;;;;17.45;3.65;;;14.00;99.90;;;;;;5104179;27;20043;-68
2023/03/31 12:21:42;;;;;;;16.08;4.10;;;14.00;99.90;;;;;;5110728;27;20099;-68
2023/03/31 12:24:12;;;;;;;16.83;4.00;;;13.90;99.90;;;;;;5111778;28;20092;-66
2023/03/31 12:27:11;;;;;;;16.35;3.95;;;13.70;99.90;;;;;;5109640;28;20081;-67
2023/03/31 12:29:41;;;;;;;13.57;3.45;;;13.60;99.90;;;;;;5076884;27;20051;-67
2023/03/31 12:32:14;;;;;;;16.77;3.53;;;13.40;99.90;;;;;;5105748;27;20035;-68
2023/03/31 12:35:01;;;;;;;19.30;3.70;;;13.30;99.90;;;;;;5108378;27;20069;-68
2023/03/31 12:38:08;;;;;;;16.52;3.25;;;13.00;99.90;;;;;;5120149;27;20808;-67
2023/03/31 12:41:02;;;;;;;20.25;3.67;;;13.00;99.90;;;;;;5101677;27;20679;-68
2023/03/31 12:43:58;;;;;;;16.38;3.50;;;13.10;99.90;;;;;;5111635;27;20039;-66
2023/03/31 12:47:00;;;;;;;17.13;3.13;;;13.20;99.90;;;;;;5109117;27;20046;-67
2023/03/31 12:49:35;;;;;;;15.80;4.00;;;13.30;99.90;;;;;;5107549;27;20096;-66
2023/03/31 12:52:30;;;;;;;13.95;3.10;;;13.30;99.90;;;;;;5113492;27;20134;-67
2023/03/31 12:54:59;;;;;;;12.00;2.60;;;13.30;99.90;;;;;;5097314;27;20039;-66
2023/03/31 12:57:25;;;;;;;15.80;3.10;;;13.20;99.90;;;;;;5109245;27;20035;-66
2023/03/31 13:00:16;;;;;;;15.07;3.15;;;13.30;99.90;;;;;;5105648;27;20046;-66
2023/03/31 13:02:42;;;;;;;13.38;2.67;;;13.30;99.90;;;;;;5105323;27;20035;-68
2023/03/31 13:05:36;;;;;;;11.50;2.78;;;13.50;99.90;;;;;;5107192;27;20043;-66
2023/03/31 13:08:49;;;;;;;15.25;2.80;;;13.60;99.90;;;;;;5108650;27;20088;-66
2023/03/31 13:11:15;;;;;;;;;;;13.50;99.90;;;;;;5108731;27;20043;-70
2023/03/31 13:14:01;;;;;;;10.95;2.95;;;13.40;99.90;;;;;;5098169;27;21036;-67
2023/03/31 13:16:30;;;;;;;9.20;2.33;;;13.30;99.90;;;;;;5105142;27;20521;-70
2023/03/31 13:18:56;;;;;;;11.05;2.53;;;13.00;99.90;;;;;;5110523;27;20031;-69
2023/03/31 13:21:24;;;;;;;10.70;2.88;;;12.80;99.90;;;;;;5108010;27;20035;-68
2023/03/31 13:23:52;;;;;;;11.77;3.30;;;12.70;99.90;;;;;;5110815;27;20550;-69
2023/03/31 13:26:35;;;;;;;13.18;2.85;;;12.60;99.90;;;;;;5108350;27;20104;-68
2023/03/31 13:29:23;;;;;;;12.75;2.75;;;12.60;99.90;;;;;;5113890;27;20419;-69
2023/03/31 13:32:00;;;;;;;15.70;2.67;;;12.60;99.90;;;;;;5100300;27;20046;-67
2023/03/31 13:34:51;;;;;;;7.55;1.50;;;12.80;99.90;;;;;;5113719;27;20046;-67
2023/03/31 13:37:43;;;;;;;5.05;1.52;;;12.90;99.90;;;;;;5104443;27;20442;-71
2023/03/31 13:40:39;;;;;;;6.72;1.52;;;12.80;99.90;;;;;;5110018;27;20084;-67
2023/03/31 13:43:38;;;;;;;15.98;2.40;;;12.80;99.90;;;;;;5111610;27;20038;-70
2023/03/31 13:46:22;;;;;;;5.75;1.45;;;12.90;99.90;;;;;;5104528;27;20058;-68
2023/03/31 13:49:18;;;;;;;4.70;1.40;;;12.90;99.90;;;;;;5108185;27;20374;-66
2023/03/31 13:52:04;;;;;;;6.22;1.75;;;12.80;99.90;;;;;;5105809;27;20069;-71
2023/03/31 13:55:08;;;;;;;8.00;1.33;;;12.70;99.90;;;;;;5109410;27;20051;-70